createdAt,value
2022-12-23T00:01:02.800Z,5.50
2022-12-23T00:03:30.886Z,6.40
2022-12-23T00:08:26.318Z,6.00
2022-12-23T00:10:56.616Z,4.50
2022-12-23T00:13:45.743Z,7.40
2022-12-23T00:16:15.148Z,7.30
2022-12-23T00:18:42.971Z,5.30
2022-12-23T00:21:15.184Z,6.10
2022-12-23T00:23:45.345Z,5.70
2022-12-23T00:26:20.096Z,7.00
2022-12-23T00:28:47.441Z,6.10
2022-12-23T00:31:15.154Z,5.00
2022-12-23T00:33:44.505Z,7.10
2022-12-23T00:36:17.605Z,6.20
2022-12-23T00:39:03.696Z,6.20
2022-12-23T00:41:49.646Z,5.80
2022-12-23T00:44:16.489Z,6.60
2022-12-23T00:46:43.722Z,6.50
2022-12-23T00:49:33.660Z,6.20
2022-12-23T00:52:00.833Z,6.20
2022-12-23T00:54:28.166Z,5.70
2022-12-23T00:56:55.325Z,6.10
2022-12-23T00:59:22.162Z,6.10
2022-12-23T01:02:07.594Z,6.20
2022-12-23T01:04:53.535Z,6.20
2022-12-23T01:07:21.358Z,7.10
2022-12-23T01:09:48.346Z,6.80
2022-12-23T01:12:15.302Z,6.20
2022-12-23T01:14:42.272Z,7.50
2022-12-23T01:17:09.523Z,6.30
2022-12-23T01:19:36.762Z,6.30
2022-12-23T01:22:03.809Z,6.30
2022-12-23T01:24:32.293Z,6.00
2022-12-23T01:26:59.240Z,8.10
2022-12-23T01:29:27.142Z,6.00
2022-12-23T01:34:21.596Z,6.30
2022-12-23T01:36:48.548Z,7.40
2022-12-23T01:39:15.820Z,6.40
2022-12-23T01:42:01.254Z,6.40
2022-12-23T01:45:00.906Z,6.40
2022-12-23T01:47:38.542Z,6.40
2022-12-23T01:50:08.497Z,6.40
2022-12-23T01:52:42.384Z,6.40
2022-12-23T01:55:10.136Z,6.40
2022-12-23T01:57:41.139Z,6.30
2022-12-23T02:00:29.715Z,6.30
2022-12-23T02:03:15.272Z,6.20
2022-12-23T02:05:48.227Z,5.40
2022-12-23T02:08:35.727Z,7.10
2022-12-23T02:11:17.883Z,4.20
2022-12-23T02:14:29.819Z,6.00
2022-12-23T02:17:09.843Z,5.70
2022-12-23T02:20:08.958Z,6.20
2022-12-23T02:22:56.913Z,5.50
2022-12-23T02:25:41.709Z,6.20
2022-12-23T02:28:33.701Z,8.70
2022-12-23T02:31:12.673Z,7.50
2022-12-23T02:33:56.528Z,7.20
2022-12-23T02:36:36.626Z,6.10
2022-12-23T02:39:15.545Z,6.30
2022-12-23T02:41:58.983Z,6.30
2022-12-23T02:47:00.580Z,6.10
2022-12-23T02:49:36.641Z,6.30
2022-12-23T02:52:07.638Z,6.30
2022-12-23T02:54:43.260Z,6.30
2022-12-23T02:57:12.869Z,6.30
2022-12-23T02:59:45.775Z,6.30
2022-12-23T03:04:42.208Z,6.30
2022-12-23T03:07:23.629Z,6.30
2022-12-23T03:10:13.977Z,6.30
2022-12-23T03:13:07.607Z,6.60
2022-12-23T03:16:02.101Z,6.30
2022-12-23T03:18:56.280Z,6.60
2022-12-23T03:21:43.217Z,6.30
2022-12-23T03:24:28.319Z,6.30
2022-12-23T03:27:04.283Z,6.40
2022-12-23T03:29:42.514Z,6.90
2022-12-23T03:32:13.591Z,6.30
2022-12-23T03:34:50.031Z,4.80
2022-12-23T03:37:20.644Z,6.40
2022-12-23T03:40:24.606Z,7.30
2022-12-23T03:42:58.729Z,6.40
2022-12-23T03:45:40.854Z,6.00
2022-12-23T03:48:17.771Z,7.70
2022-12-23T03:50:46.292Z,6.50
2022-12-23T03:53:25.943Z,6.30
2022-12-23T03:55:59.365Z,6.30
2022-12-23T03:58:47.794Z,6.60
2022-12-23T04:01:55.766Z,6.00
2022-12-23T04:04:51.404Z,6.40
2022-12-23T04:07:29.724Z,6.20
2022-12-23T04:10:00.279Z,6.00
2022-12-23T04:12:28.515Z,6.20
2022-12-23T04:14:55.674Z,5.60
2022-12-23T04:17:23.265Z,6.60
2022-12-23T04:19:52.419Z,6.80
2022-12-23T04:22:19.257Z,6.10
2022-12-23T04:24:46.177Z,6.50
2022-12-23T04:27:15.634Z,7.30
2022-12-23T04:29:43.655Z,6.20
2022-12-23T04:32:10.909Z,8.10
2022-12-23T04:34:37.909Z,6.20
2022-12-23T04:37:04.837Z,6.30
2022-12-23T04:41:59.294Z,6.30
2022-12-23T04:44:26.256Z,6.30
2022-12-23T04:46:53.347Z,6.30
2022-12-23T04:49:20.275Z,6.30
2022-12-23T04:54:14.825Z,6.40
2022-12-23T04:59:10.638Z,6.30
2022-12-23T05:01:37.567Z,7.70
2022-12-23T05:04:04.866Z,6.30
2022-12-23T05:06:31.811Z,6.30
2022-12-23T05:08:59.003Z,6.30
2022-12-23T05:11:28.874Z,6.30
2022-12-23T05:13:55.957Z,4.10
2022-12-23T05:16:23.206Z,6.30
2022-12-23T05:18:50.242Z,6.20
2022-12-23T05:21:17.618Z,6.70
2022-12-23T05:26:12.081Z,6.10
2022-12-23T05:28:39.898Z,5.00
2022-12-23T05:31:08.329Z,5.80
2022-12-23T05:33:35.785Z,5.90
2022-12-23T05:36:03.195Z,6.20
2022-12-23T05:38:30.303Z,5.50
2022-12-23T05:43:25.051Z,6.50
2022-12-23T05:45:52.575Z,6.20
2022-12-23T05:48:19.587Z,6.90
2022-12-23T05:50:53.036Z,6.20
2022-12-23T05:53:20.984Z,4.70
2022-12-23T05:55:53.567Z,6.20
2022-12-23T05:58:20.566Z,5.60
2022-12-23T06:01:06.257Z,6.90
2022-12-23T06:03:33.323Z,6.20
2022-12-23T06:06:00.369Z,6.20
2022-12-23T06:08:27.425Z,6.10
2022-12-23T06:10:55.214Z,6.50
2022-12-23T06:13:22.568Z,6.10
2022-12-23T06:15:49.854Z,8.00
2022-12-23T06:18:17.114Z,6.10
2022-12-23T06:20:47.842Z,5.50
2022-12-23T06:23:14.908Z,5.90
2022-12-23T06:25:41.822Z,6.10
2022-12-23T06:28:08.856Z,6.10
2022-12-23T06:30:37.322Z,6.00
2022-12-23T06:33:07.643Z,6.10
2022-12-23T06:35:34.686Z,6.00
2022-12-23T06:38:01.562Z,6.10
2022-12-23T06:40:41.924Z,7.60
2022-12-23T06:43:10.839Z,6.10
2022-12-23T06:45:37.719Z,6.10
2022-12-23T06:48:05.331Z,6.10
2022-12-23T06:50:32.706Z,6.00
2022-12-23T06:52:59.602Z,6.20
2022-12-23T06:55:26.722Z,6.20
2022-12-23T06:57:53.598Z,7.60
2022-12-23T07:00:20.731Z,6.20
2022-12-23T07:02:48.125Z,6.30
2022-12-23T07:05:15.431Z,6.30
2022-12-23T07:07:42.591Z,6.30
2022-12-23T07:10:10.787Z,7.60
2022-12-23T07:12:38.267Z,6.30
2022-12-23T07:15:06.339Z,6.40
2022-12-23T07:17:33.568Z,6.20
2022-12-23T07:20:00.567Z,7.40
2022-12-23T07:22:27.514Z,6.20
2022-12-23T07:24:54.378Z,6.20
2022-12-23T07:27:21.567Z,6.20
2022-12-23T07:29:48.701Z,6.20
2022-12-23T07:32:15.913Z,6.90
2022-12-23T07:34:42.925Z,6.20
2022-12-23T07:37:09.973Z,6.60
2022-12-23T07:39:36.963Z,6.30
2022-12-23T07:42:33.617Z,6.30
2022-12-23T07:44:51.027Z,6.30
2022-12-23T07:47:18.140Z,6.30
2022-12-23T07:49:47.191Z,5.20
2022-12-23T07:52:14.231Z,6.30
2022-12-23T07:54:41.273Z,7.70
2022-12-23T07:57:08.450Z,6.30
2022-12-23T07:59:35.399Z,7.10
2022-12-23T08:02:02.686Z,6.30
2022-12-23T08:04:29.989Z,5.70
2022-12-23T08:06:59.173Z,6.50
2022-12-23T08:09:29.111Z,9.60
2022-12-23T08:11:56.873Z,7.30
2022-12-23T08:14:31.831Z,6.50
2022-12-23T08:17:09.062Z,3.50
2022-12-23T08:19:36.171Z,6.50
2022-12-23T08:22:06.013Z,6.30
2022-12-23T08:24:33.192Z,6.80
2022-12-23T08:27:23.223Z,7.10
2022-12-23T08:29:50.103Z,6.20
2022-12-23T08:32:17.061Z,7.20
2022-12-23T08:34:44.126Z,7.70
2022-12-23T08:37:11.267Z,6.30
2022-12-23T08:39:38.406Z,6.30
2022-12-23T08:42:05.634Z,6.30
2022-12-23T08:44:32.571Z,7.20
2022-12-23T08:46:59.547Z,7.50
2022-12-23T08:49:26.585Z,7.60
2022-12-23T08:51:56.275Z,6.30
2022-12-23T08:54:23.863Z,6.30
2022-12-23T08:56:50.904Z,7.00
2022-12-23T08:59:23.397Z,6.30
2022-12-23T09:01:50.539Z,6.30
2022-12-23T09:04:17.732Z,6.30
2022-12-23T09:06:45.570Z,7.70
2022-12-23T09:09:14.313Z,6.40
2022-12-23T09:11:42.336Z,6.60
2022-12-23T09:14:10.743Z,6.40
2022-12-23T09:16:48.437Z,6.40
2022-12-23T09:19:15.459Z,7.00
2022-12-23T09:21:42.440Z,6.30
2022-12-23T09:24:09.375Z,7.10
2022-12-23T09:26:36.312Z,6.40
2022-12-23T09:29:06.026Z,6.50
2022-12-23T09:31:37.417Z,6.60
2022-12-23T09:34:05.332Z,8.00
2022-12-23T09:36:32.286Z,7.90
2022-12-23T09:39:31.629Z,6.70
2022-12-23T09:42:27.248Z,6.80
2022-12-23T09:45:50.291Z,7.00
2022-12-23T09:48:25.625Z,7.10
2022-12-23T09:50:53.516Z,7.30
2022-12-23T09:53:29.149Z,8.40
2022-12-23T09:56:25.137Z,8.30
2022-12-23T09:59:24.783Z,7.90
2022-12-23T10:02:07.274Z,8.20
2022-12-23T10:04:40.383Z,8.50
2022-12-23T10:07:33.342Z,6.60
2022-12-23T10:10:26.803Z,10.90
2022-12-23T10:12:56.021Z,8.70
2022-12-23T10:15:30.995Z,8.50
2022-12-23T10:18:15.694Z,9.50
2022-12-23T10:20:58.638Z,7.80
2022-12-23T10:23:34.479Z,8.30
2022-12-23T10:26:26.238Z,9.60
2022-12-23T10:29:02.227Z,8.30
2022-12-23T10:31:50.022Z,8.40
2022-12-23T10:34:36.628Z,8.30
2022-12-23T10:37:27.629Z,8.20
2022-12-23T10:40:09.898Z,7.90
2022-12-23T10:42:54.099Z,7.90
2022-12-23T10:45:58.966Z,7.90
2022-12-23T10:48:26.041Z,7.90
2022-12-23T10:51:00.362Z,7.80
2022-12-23T10:53:50.206Z,8.60
2022-12-23T10:56:21.471Z,7.90
2022-12-23T10:58:54.090Z,7.90
2022-12-23T11:01:27.013Z,8.10
2022-12-23T11:04:08.679Z,8.00
2022-12-23T11:06:40.724Z,9.60
2022-12-23T11:09:18.085Z,8.40
2022-12-23T11:12:02.582Z,8.40
2022-12-23T11:14:41.746Z,8.90
2022-12-23T11:17:23.291Z,9.00
2022-12-23T11:20:11.225Z,9.40
2022-12-23T11:23:03.996Z,10.10
2022-12-23T11:25:40.703Z,9.70
2022-12-23T11:28:11.280Z,9.70
2022-12-23T11:31:00.907Z,9.50
2022-12-23T11:33:42.031Z,9.30
2022-12-23T11:36:24.850Z,9.00
2022-12-23T11:38:53.591Z,10.00
2022-12-23T11:41:34.267Z,9.50
2022-12-23T11:44:10.520Z,8.30
2022-12-23T11:46:40.463Z,7.00
2022-12-23T11:49:17.552Z,8.30
2022-12-23T11:51:48.303Z,9.50
2022-12-23T11:54:20.618Z,9.70
2022-12-23T11:56:52.454Z,8.60
2022-12-23T11:59:30.440Z,8.80
2022-12-23T12:02:23.665Z,9.10
2022-12-23T12:04:58.069Z,9.30
2022-12-23T12:07:27.525Z,9.60
2022-12-23T12:09:59.943Z,9.40
2022-12-23T12:12:28.964Z,9.40
2022-12-23T12:14:59.014Z,9.40
2022-12-23T12:17:44.569Z,9.40
2022-12-23T12:20:30.877Z,11.60
2022-12-23T12:23:13.494Z,9.20
2022-12-23T12:25:55.657Z,9.00
2022-12-23T12:28:38.860Z,8.90
2022-12-23T12:31:24.079Z,9.40
2022-12-23T12:33:59.159Z,7.40
2022-12-23T12:36:26.206Z,8.60
2022-12-23T12:38:54.537Z,8.90
2022-12-23T12:41:49.617Z,8.40
2022-12-23T12:44:45.960Z,8.50
2022-12-23T12:50:30.421Z,7.90
2022-12-23T12:53:03.110Z,7.90
2022-12-23T12:55:43.615Z,7.70
2022-12-23T12:58:19.660Z,7.50
2022-12-23T13:01:00.511Z,7.60
2022-12-23T13:04:18.376Z,7.50
2022-12-23T13:07:00.817Z,7.60
2022-12-23T13:09:56.335Z,7.80
2022-12-23T13:12:34.098Z,7.60
2022-12-23T13:15:12.242Z,7.60
2022-12-23T13:18:11.236Z,7.60
2022-12-23T13:21:07.521Z,7.50
2022-12-23T13:23:49.471Z,8.50
2022-12-23T13:26:35.258Z,8.30
2022-12-23T13:29:35.132Z,7.20
2022-12-23T13:32:14.001Z,7.50
2022-12-23T13:35:03.677Z,7.90
2022-12-23T13:37:50.258Z,7.40
2022-12-23T13:40:32.705Z,7.10
2022-12-23T13:43:21.637Z,7.10
2022-12-23T13:45:51.607Z,7.60
2022-12-23T13:48:40.707Z,7.20
2022-12-23T13:51:25.694Z,6.50
2022-12-23T13:54:03.943Z,6.40
2022-12-23T13:56:40.940Z,6.20
2022-12-23T13:59:12.355Z,4.00
2022-12-23T14:01:49.258Z,6.00
2022-12-23T14:04:33.184Z,5.80
2022-12-23T14:07:21.870Z,5.90
2022-12-23T14:10:01.095Z,3.90
2022-12-23T14:13:11.643Z,5.30
2022-12-23T14:15:55.497Z,8.50
2022-12-23T14:18:44.036Z,9.90
2022-12-23T14:21:28.080Z,5.90
2022-12-23T14:24:23.321Z,5.70
2022-12-23T14:27:28.291Z,5.40
2022-12-23T14:30:05.614Z,5.20
2022-12-23T14:32:47.755Z,6.60
2022-12-23T14:35:23.826Z,6.50
2022-12-23T14:38:14.441Z,6.70
2022-12-23T14:40:56.356Z,3.80
2022-12-23T14:43:55.665Z,4.70
2022-12-23T14:46:35.463Z,4.90
2022-12-23T14:49:38.093Z,4.70
2022-12-23T14:54:39.692Z,3.50
2022-12-23T14:57:17.425Z,3.40
2022-12-23T14:59:56.911Z,4.40
2022-12-23T15:02:41.486Z,3.70
2022-12-23T15:05:10.277Z,4.20
2022-12-23T15:07:40.670Z,4.20
2022-12-23T15:10:16.723Z,4.40
2022-12-23T15:12:48.373Z,4.00
2022-12-23T15:15:21.691Z,4.10
2022-12-23T15:17:49.282Z,4.40
2022-12-23T15:20:23.387Z,4.10
2022-12-23T15:25:39.793Z,4.10
2022-12-23T15:28:18.139Z,3.90
2022-12-23T15:30:56.829Z,3.80
2022-12-23T15:36:15.283Z,3.60
2022-12-23T15:41:16.464Z,6.40
2022-12-23T15:43:44.699Z,3.10
2022-12-23T15:46:26.883Z,4.30
2022-12-23T15:48:56.801Z,2.80
2022-12-23T15:54:36.761Z,3.10
2022-12-23T15:57:04.905Z,2.90
2022-12-23T15:59:36.107Z,2.30
2022-12-23T16:02:59.091Z,2.80
2022-12-23T16:07:44.408Z,2.90
2022-12-23T16:12:41.661Z,2.90
2022-12-23T16:15:29.943Z,2.80
2022-12-23T16:18:19.786Z,3.00
2022-12-23T16:20:54.213Z,2.80
2022-12-23T16:23:22.622Z,2.80
2022-12-23T16:25:52.828Z,2.70
2022-12-23T16:28:24.107Z,2.80
2022-12-23T16:30:57.191Z,2.70
2022-12-23T16:33:33.486Z,2.80
2022-12-23T16:36:16.188Z,3.70
2022-12-23T16:38:43.220Z,2.60
2022-12-23T16:41:10.292Z,2.50
2022-12-23T16:43:39.965Z,2.50
2022-12-23T16:46:15.217Z,2.40
2022-12-23T16:48:48.506Z,2.40
2022-12-23T16:51:21.808Z,3.60
2022-12-23T16:53:50.162Z,2.40
2022-12-23T16:56:19.773Z,2.50
2022-12-23T16:58:47.436Z,2.20
2022-12-23T17:01:27.676Z,2.10
2022-12-23T17:03:57.915Z,2.30
2022-12-23T17:06:26.069Z,2.20
2022-12-23T17:11:28.985Z,1.60
2022-12-23T17:14:03.301Z,2.30
2022-12-23T17:16:33.507Z,2.00
2022-12-23T17:21:51.743Z,2.50
2022-12-23T17:24:42.419Z,2.90
2022-12-23T17:27:51.110Z,2.50
2022-12-23T17:30:36.017Z,1.70
2022-12-23T17:33:21.798Z,3.60
2022-12-23T17:35:59.127Z,2.50
2022-12-23T17:48:31.704Z,2.70
2022-12-23T17:51:12.183Z,1.80
2022-12-23T17:54:02.985Z,2.60
2022-12-23T17:56:42.366Z,1.00
2022-12-23T18:00:05.518Z,4.00
2022-12-23T18:06:01.943Z,2.70
2022-12-23T18:08:44.044Z,2.50
2022-12-23T18:11:24.963Z,2.50
2022-12-23T18:54:05.414Z,2.20
2022-12-23T18:56:35.945Z,2.70
2022-12-23T18:59:15.522Z,2.80
2022-12-23T19:02:06.610Z,5.60
2022-12-23T19:04:50.820Z,2.80
2022-12-23T19:07:24.818Z,3.60
2022-12-23T19:09:54.645Z,2.90
2022-12-23T19:12:22.301Z,2.90
2022-12-23T19:17:22.310Z,2.70
2022-12-23T19:25:06.321Z,2.90
2022-12-23T19:27:52.396Z,4.10
2022-12-23T19:30:43.194Z,2.90
2022-12-23T19:36:07.300Z,1.90
2022-12-23T19:43:46.360Z,2.10
2022-12-23T19:46:25.625Z,3.00
2022-12-23T19:51:27.326Z,3.00
2022-12-23T19:53:58.674Z,3.00
2022-12-23T19:58:57.475Z,3.00
2022-12-23T20:01:26.484Z,3.00
2022-12-23T20:03:55.510Z,3.10
2022-12-23T20:09:00.265Z,2.90
2022-12-23T20:14:08.147Z,2.90
2022-12-23T20:16:42.747Z,2.50
2022-12-23T20:19:10.708Z,3.00
2022-12-23T20:24:06.193Z,3.00
2022-12-23T20:26:33.214Z,2.80
2022-12-23T20:31:30.696Z,3.00
2022-12-23T20:33:58.300Z,2.80
2022-12-23T20:36:31.542Z,2.90
2022-12-23T20:38:58.795Z,3.60
2022-12-23T20:41:28.799Z,4.30
2022-12-23T20:44:32.593Z,3.60
2022-12-23T20:46:43.312Z,2.90
2022-12-23T20:49:13.479Z,2.90
2022-12-23T20:51:40.487Z,3.30
2022-12-23T20:54:07.466Z,1.90
2022-12-23T20:56:34.469Z,3.20
2022-12-23T20:59:03.776Z,2.80
2022-12-23T21:01:35.297Z,2.80
2022-12-23T21:04:08.517Z,2.80
2022-12-23T21:06:36.388Z,2.80
2022-12-23T21:09:05.750Z,2.70
2022-12-23T21:11:35.011Z,2.60
2022-12-23T21:14:06.224Z,2.60
2022-12-23T21:16:35.036Z,2.60
2022-12-23T21:19:02.044Z,2.60
2022-12-23T21:21:31.891Z,4.20
2022-12-23T21:24:04.193Z,2.80
2022-12-23T21:26:33.563Z,2.80
2022-12-23T21:29:01.883Z,2.70
2022-12-23T21:31:30.396Z,2.60
2022-12-23T21:33:57.921Z,2.60
2022-12-23T21:36:27.621Z,2.20
2022-12-23T21:41:27.405Z,1.50
2022-12-23T21:43:59.768Z,2.60
2022-12-23T21:46:30.139Z,2.50
2022-12-23T21:51:39.505Z,3.30
2022-12-23T21:54:08.608Z,1.60
2022-12-23T21:56:35.868Z,2.50
2022-12-23T21:59:06.956Z,2.10
2022-12-23T22:01:34.312Z,2.40
2022-12-23T22:04:05.014Z,2.80
2022-12-23T22:06:36.888Z,2.30
2022-12-23T22:09:08.939Z,2.50
2022-12-23T22:11:37.189Z,2.30
2022-12-23T22:14:06.570Z,2.50
2022-12-23T22:16:45.113Z,2.30
2022-12-23T22:24:09.911Z,2.60
2022-12-23T22:26:39.853Z,2.50
2022-12-23T22:31:45.308Z,3.40
2022-12-23T22:34:21.431Z,1.50
2022-12-23T22:37:03.596Z,2.10
2022-12-23T22:39:33.619Z,2.40
2022-12-23T22:42:00.636Z,2.40
2022-12-23T22:44:27.744Z,2.40
2022-12-23T22:46:54.930Z,3.20
2022-12-23T22:49:22.099Z,4.60
2022-12-23T22:54:16.564Z,2.30
2022-12-23T22:56:45.876Z,2.40
2022-12-23T22:59:20.122Z,2.00
2022-12-23T23:01:48.188Z,1.70
2022-12-23T23:04:15.386Z,0.90
2022-12-23T23:06:42.899Z,2.40
2022-12-23T23:09:15.241Z,2.40
2022-12-23T23:11:44.320Z,2.70
2022-12-23T23:14:12.134Z,2.40
2022-12-23T23:16:39.505Z,1.50
2022-12-23T23:19:09.010Z,2.10
2022-12-23T23:21:37.828Z,2.60
2022-12-23T23:24:05.614Z,2.00
2022-12-23T23:26:32.621Z,4.20
2022-12-23T23:29:03.103Z,2.40
2022-12-23T23:34:13.542Z,3.90
2022-12-23T23:36:40.933Z,2.40
2022-12-23T23:39:08.864Z,2.50
2022-12-23T23:44:03.708Z,2.40
2022-12-23T23:46:31.744Z,1.40
2022-12-23T23:48:59.075Z,1.50
2022-12-23T23:51:26.078Z,3.00
2022-12-23T23:57:10.568Z,2.30
